Time;durP1;ratioP1;P1;durP2;ratioP2;P2;SDS_P1;SDS_P2;PMS_P1;PMS_P2;Temp;Humidity;BMP_temperature;BMP_pressure;BME280_temperature;BME280_humidity;BME280_pressure;Samples;Min_cycle;Max_cycle;Signal;HPM_P1;HPM_P2
2022/08/07 00:01:13;;;;;;;;;3.00;3.00;;;;;19.81;38.36;101790.34;5098404;27;45555;-62
2022/08/07 00:03:38;;;;;;;;;7.00;4.33;;;;;19.73;38.35;101786.34;5097900;27;45400;-63
2022/08/07 00:06:04;;;;;;;;;3.00;3.00;;;;;19.65;38.64;101779.81;5102805;27;45319;-61
2022/08/07 00:08:30;;;;;;;;;3.00;3.00;;;;;19.71;38.47;101799.13;5099752;27;45365;-62
2022/08/07 00:10:56;;;;;;;;;4.00;4.00;;;;;19.66;38.69;101797.72;5097230;27;45567;-62
2022/08/07 00:13:22;;;;;;;;;3.00;3.00;;;;;19.60;38.98;101787.41;5098193;27;45450;-62
2022/08/07 00:15:49;;;;;;;;;3.00;3.00;;;;;19.61;39.13;101789.13;5097859;27;45309;-63
2022/08/07 00:18:17;;;;;;;;;4.33;4.33;;;;;19.53;39.34;101794.19;5080124;27;45501;-62
2022/08/07 00:20:42;;;;;;;;;5.00;5.00;;;;;19.46;39.71;101788.41;5063047;27;45548;-64
2022/08/07 00:23:08;;;;;;;;;5.00;3.67;;;;;19.36;39.88;101782.81;5096922;27;45379;-63
2022/08/07 00:25:34;;;;;;;;;6.67;5.00;;;;;19.28;40.33;101796.03;5096935;27;45312;-61
2022/08/07 00:28:00;;;;;;;;;5.67;4.00;;;;;19.19;40.02;101785.06;5079918;27;45244;-62
2022/08/07 00:30:26;;;;;;;;;5.00;5.00;;;;;19.18;40.19;101777.94;5097140;27;45698;-60
2022/08/07 00:32:51;;;;;;;;;3.33;3.00;;;;;19.15;40.23;101781.72;5097787;27;45343;-61
2022/08/07 00:35:18;;;;;;;;;5.33;5.33;;;;;19.00;39.84;101770.19;5095724;27;45227;-62
2022/08/07 00:37:44;;;;;;;;;4.67;4.67;;;;;19.12;40.44;101779.22;5097652;27;45429;-61
2022/08/07 00:40:10;;;;;;;;;4.00;4.00;;;;;19.12;40.33;101776.53;5098538;27;45528;-61
2022/08/07 00:42:36;;;;;;;;;4.67;2.67;;;;;19.06;40.95;101771.59;5079623;27;47468;-63
2022/08/07 00:45:02;;;;;;;;;3.33;2.00;;;;;18.99;40.58;101768.47;5097004;27;45375;-62
2022/08/07 00:47:27;;;;;;;;;4.00;4.00;;;;;18.95;40.59;101766.13;5098215;27;45464;-62
2022/08/07 00:49:53;;;;;;;;;2.67;2.67;;;;;18.92;41.12;101771.75;5079838;27;45640;-64
2022/08/07 00:52:18;;;;;;;;;4.00;4.00;;;;;18.90;40.45;101774.56;5096365;27;45274;-63
2022/08/07 00:54:44;;;;;;;;;3.00;3.00;;;;;18.92;40.49;101766.34;5096472;27;45345;-62
2022/08/07 00:57:10;;;;;;;;;6.33;5.00;;;;;18.86;40.73;101773.88;5097714;27;45285;-66
2022/08/07 00:59:36;;;;;;;;;4.33;2.67;;;;;18.85;41.00;101760.53;5097626;27;45349;-62
2022/08/07 01:02:04;;;;;;;;;4.00;3.00;;;;;18.84;41.21;101765.06;5078571;27;47611;-60
2022/08/07 01:04:30;;;;;;;;;3.00;3.00;;;;;18.78;40.79;101756.56;5076218;27;45366;-62
2022/08/07 01:06:55;;;;;;;;;3.00;3.00;;;;;18.75;41.29;101737.91;5096161;27;45428;-63
2022/08/07 01:09:22;;;;;;;;;4.00;4.00;;;;;18.76;41.17;101761.22;5099785;27;45509;-61
2022/08/07 01:11:52;;;;;;;;;3.00;3.00;;;;;18.69;41.08;101739.22;5098326;27;45480;-62
2022/08/07 01:14:23;;;;;;;;;2.00;2.00;;;;;18.72;41.63;101746.22;5097485;27;45312;-63
2022/08/07 01:16:51;;;;;;;;;3.33;3.33;;;;;18.69;41.74;101755.38;5096806;27;45472;-62
2022/08/07 01:19:29;;;;;;;;;3.00;3.00;;;;;18.65;41.63;101756.59;5078498;27;45453;-61
2022/08/07 01:21:55;;;;;;;;;2.67;2.67;;;;;18.64;42.12;101752.19;5098355;27;45432;-62
2022/08/07 01:24:32;;;;;;;;;2.00;2.00;;;;;18.61;41.87;101749.63;5079160;27;45443;-61
2022/08/07 01:26:59;;;;;;;;;5.00;4.00;;;;;18.56;41.98;101749.97;5096939;27;45490;-60
2022/08/07 01:29:26;;;;;;;;;5.00;5.00;;;;;18.54;42.05;101741.16;5095250;27;45418;-65
2022/08/07 01:31:52;;;;;;;;;3.00;3.00;;;;;18.46;42.45;101738.13;5096490;27;46072;-61
2022/08/07 01:34:19;;;;;;;;;4.00;4.00;;;;;18.50;42.31;101744.19;5089186;27;45446;-62
2022/08/07 01:36:47;;;;;;;;;3.00;3.00;;;;;18.48;42.28;101740.72;5077575;28;45772;-62
2022/08/07 01:39:12;;;;;;;;;3.00;3.00;;;;;18.44;42.31;101745.47;5088832;27;45435;-62
2022/08/07 01:41:39;;;;;;;;;3.00;3.00;;;;;18.42;42.88;101749.25;5097605;27;46238;-61
2022/08/07 01:44:05;;;;;;;;;3.67;3.67;;;;;18.39;42.69;101752.16;5096737;27;45338;-62
2022/08/07 01:46:30;;;;;;;;;3.67;3.67;;;;;18.38;42.90;101750.44;5097792;27;45235;-63
2022/08/07 01:48:56;;;;;;;;;3.00;3.00;;;;;18.37;43.06;101754.09;5092188;27;45611;-61
2022/08/07 01:51:25;;;;;;;;;2.00;2.00;;;;;18.36;42.96;101750.53;5077992;28;45358;-62
2022/08/07 01:54:03;;;;;;;;;5.00;4.00;;;;;18.39;42.80;101752.16;5075980;28;45425;-61
2022/08/07 01:56:32;;;;;;;;;2.33;2.33;;;;;18.33;42.92;101739.09;5076640;28;45337;-61
2022/08/07 01:59:04;;;;;;;;;2.33;2.33;;;;;18.35;43.03;101753.31;5084896;27;45269;-63
2022/08/07 02:01:34;;;;;;;;;5.33;4.00;;;;;18.30;43.21;101752.78;5097679;27;46292;-62
2022/08/07 02:04:10;;;;;;;;;3.00;3.00;;;;;18.25;43.26;101745.91;5097638;27;45224;-60
2022/08/07 02:06:38;;;;;;;;;6.00;3.67;;;;;18.22;43.12;101750.63;5097136;27;45387;-61
2022/08/07 02:09:08;;;;;;;;;3.00;3.00;;;;;18.19;43.80;101740.94;5095842;27;45549;-62
2022/08/07 02:11:37;;;;;;;;;3.00;3.00;;;;;18.15;43.48;101750.22;5077943;27;45353;-60
2022/08/07 02:14:06;;;;;;;;;1.67;1.67;;;;;18.14;43.67;101748.47;5096061;27;45397;-60
2022/08/07 02:16:34;;;;;;;;;2.33;2.33;;;;;18.13;44.15;101751.28;5096357;27;45212;-62
2022/08/07 02:19:06;;;;;;;;;4.00;3.00;;;;;18.12;44.04;101754.94;5095783;27;45529;-61
2022/08/07 02:21:34;;;;;;;;;3.00;3.00;;;;;18.06;44.03;101756.22;5095649;27;45445;-63
2022/08/07 02:24:02;;;;;;;;;2.33;2.33;;;;;18.05;44.38;101759.88;5096336;27;45478;-61
2022/08/07 02:26:28;;;;;;;;;2.67;2.67;;;;;18.01;44.15;101746.75;5061736;27;45399;-62
2022/08/07 02:28:56;;;;;;;;;4.00;3.00;;;;;18.03;44.37;101753.75;5096541;27;45461;-62
2022/08/07 02:31:22;;;;;;;;;4.33;3.00;;;;;18.02;44.35;101748.47;5096533;27;46075;-61
2022/08/07 02:33:50;;;;;;;;;4.00;2.67;;;;;17.96;44.56;101744.34;5092388;27;45233;-61
2022/08/07 02:36:17;;;;;;;;;4.00;2.00;;;;;18.04;44.13;101757.28;5075517;28;45446;-62
2022/08/07 02:38:44;;;;;;;;;5.00;3.00;;;;;18.00;44.10;101748.59;5080907;27;45428;-61
2022/08/07 02:41:11;;;;;;;;;6.00;2.00;;;;;17.89;45.10;101737.69;5095897;27;46039;-62
2022/08/07 02:43:39;;;;;;;;;3.00;3.00;;;;;17.87;44.87;101739.63;5095702;27;45338;-62
2022/08/07 02:46:07;;;;;;;;;3.00;3.00;;;;;17.84;44.44;101739.81;5097336;27;45343;-64
2022/08/07 02:48:33;;;;;;;;;5.00;3.67;;;;;17.81;45.05;101745.41;5080744;27;45379;-62
2022/08/07 02:51:06;;;;;;;;;3.00;3.00;;;;;17.79;44.98;101748.22;5099548;27;46002;-63
2022/08/07 02:53:34;;;;;;;;;3.00;3.00;;;;;17.79;44.80;101740.13;5098939;27;45527;-63
2022/08/07 02:56:03;;;;;;;;;4.00;4.00;;;;;17.72;45.60;101730.78;5100197;27;45390;-63
2022/08/07 02:58:30;;;;;;;;;7.33;5.00;;;;;17.46;45.73;101702.91;5063975;27;45461;-61
2022/08/07 03:00:58;;;;;;;;;11.00;9.67;;;;;17.61;45.75;101734.16;5098411;27;46278;-62
2022/08/07 03:03:26;;;;;;;;;7.33;7.33;;;;;17.62;45.88;101735.00;5098818;27;45454;-61
2022/08/07 03:05:53;;;;;;;;;17.00;12.67;;;;;17.62;45.12;101735.00;5098965;27;45330;-62
2022/08/07 03:08:20;;;;;;;;;12.33;11.67;;;;;17.61;45.84;101731.47;5098346;27;45469;-61
2022/08/07 03:10:46;;;;;;;;;18.67;13.00;;;;;17.60;46.11;101727.03;5078421;28;45388;-62
2022/08/07 03:13:14;;;;;;;;;10.33;9.67;;;;;17.55;45.80;101728.31;5078433;28;45481;-62
2022/08/07 03:15:40;;;;;;;;;12.67;12.67;;;;;17.57;46.15;101734.44;5078148;28;45393;-63
2022/08/07 03:18:05;;;;;;;;;14.33;12.33;;;;;17.57;45.72;101721.84;5078365;28;45310;-61
2022/08/07 03:20:32;;;;;;;;;19.00;12.33;;;;;17.57;45.97;101729.06;5096600;27;45432;-63
2022/08/07 03:22:58;;;;;;;;;17.00;13.33;;;;;17.53;46.34;101731.09;5098933;27;45303;-63
2022/08/07 03:25:26;;;;;;;;;15.00;13.67;;;;;17.49;46.38;101724.22;5098870;27;45358;-63
2022/08/07 03:27:54;;;;;;;;;14.00;12.67;;;;;17.29;46.54;101698.63;5099024;27;45673;-62
2022/08/07 03:30:21;;;;;;;;;11.67;9.67;;;;;17.46;46.53;101726.25;5098430;27;46169;-63
2022/08/07 03:32:48;;;;;;;;;9.00;7.00;;;;;17.41;46.71;101726.53;5101046;27;45317;-63
2022/08/07 03:35:19;;;;;;;;;6.00;6.00;;;;;17.38;46.79;101737.50;5085082;27;45340;-63
2022/08/07 03:37:50;;;;;;;;;8.67;5.00;;;;;17.38;45.85;101729.44;5079133;28;45276;-63
2022/08/07 03:40:17;;;;;;;;;5.67;5.67;;;;;17.39;46.72;101733.84;5093541;27;47357;-63
2022/08/07 03:42:43;;;;;;;;;4.00;4.00;;;;;17.36;46.94;101717.94;5098450;27;45566;-62
2022/08/07 03:45:10;;;;;;;;;4.00;3.00;;;;;17.31;46.95;101720.03;5098526;27;45338;-62
2022/08/07 03:47:36;;;;;;;;;3.33;3.00;;;;;17.33;46.87;101734.28;5099199;27;45648;-62
2022/08/07 03:50:02;;;;;;;;;4.33;3.00;;;;;17.36;47.43;101739.44;5098120;27;46022;-63
2022/08/07 03:52:28;;;;;;;;;3.00;3.00;;;;;17.25;47.60;101736.59;5080816;27;45258;-61
2022/08/07 03:54:56;;;;;;;;;5.67;4.00;;;;;17.23;47.06;101736.69;5098680;27;45390;-63
2022/08/07 03:57:25;;;;;;;;;3.33;3.33;;;;;17.22;47.44;101736.81;5097412;27;45413;-61
2022/08/07 03:59:51;;;;;;;;;3.67;3.67;;;;;17.21;47.65;101735.09;5097292;27;45239;-61
2022/08/07 04:02:17;;;;;;;;;5.00;5.00;;;;;17.11;47.61;101732.13;5098362;27;45713;-62
2022/08/07 04:04:42;;;;;;;;;3.67;3.00;;;;;17.09;47.63;101737.59;5098464;27;45357;-62
2022/08/07 04:07:08;;;;;;;;;2.33;2.33;;;;;17.10;47.96;101739.31;5098494;27;45302;-62
2022/08/07 04:09:35;;;;;;;;;3.00;2.00;;;;;17.05;48.35;101728.00;5097565;27;45309;-61
2022/08/07 04:12:00;;;;;;;;;4.00;4.00;;;;;16.95;47.85;101718.84;5097987;27;45406;-61
2022/08/07 04:14:27;;;;;;;;;4.00;4.00;;;;;16.87;48.24;101710.38;5098182;27;45393;-63
2022/08/07 04:16:53;;;;;;;;;4.00;4.00;;;;;17.01;48.35;101734.53;5099081;27;45543;-62
2022/08/07 04:19:18;;;;;;;;;3.67;3.67;;;;;16.99;48.13;101725.72;5097427;27;46170;-61
2022/08/07 04:21:44;;;;;;;;;3.00;2.00;;;;;16.96;48.40;101731.31;5098142;27;45468;-62
2022/08/07 04:24:11;;;;;;;;;3.00;3.00;;;;;17.02;48.06;101728.19;5098202;27;45395;-62
2022/08/07 04:26:40;;;;;;;;;4.33;4.00;;;;;17.03;48.29;101737.13;5098637;27;45267;-62
2022/08/07 04:29:06;;;;;;;;;6.33;6.33;;;;;17.02;48.53;101736.25;5097124;27;45456;-61
2022/08/07 04:31:32;;;;;;;;;3.00;3.00;;;;;17.00;48.31;101732.81;5097791;27;45436;-62
2022/08/07 04:33:58;;;;;;;;;3.67;3.00;;;;;16.95;48.81;101734.09;5092700;27;45376;-61
2022/08/07 04:36:24;;;;;;;;;5.00;3.67;;;;;16.95;48.92;101726.03;5077661;28;45412;-64
2022/08/07 04:38:50;;;;;;;;;4.00;4.00;;;;;16.98;48.53;101728.50;5077025;27;46339;-61
2022/08/07 04:41:15;;;;;;;;;3.00;3.00;;;;;16.92;48.49;101729.75;5077425;28;45425;-62
2022/08/07 04:43:45;;;;;;;;;3.67;3.67;;;;;16.93;48.63;101731.50;5077186;28;45318;-61
2022/08/07 04:46:13;;;;;;;;;3.00;3.00;;;;;16.93;48.89;101738.72;5077473;28;45327;-64
2022/08/07 04:49:00;;;;;;;;;3.33;3.33;;;;;16.95;48.69;101732.25;5076472;28;45453;-66
2022/08/07 04:51:36;;;;;;;;;3.00;3.00;;;;;16.99;48.79;101735.59;5058530;28;45279;-63
2022/08/07 04:54:27;;;;;;;;;4.00;3.33;;;;;16.99;48.67;101736.47;5077346;28;45334;-62
2022/08/07 04:57:27;;;;;;;;;1.67;1.67;;;;;16.97;49.26;101735.72;5077405;28;45416;-62
2022/08/07 05:00:04;;;;;;;;;2.67;2.67;;;;;16.96;49.02;101742.06;5010325;27;45326;-62
2022/08/07 05:02:57;;;;;;;;;5.00;3.33;;;;;16.99;49.13;101747.22;5097541;27;46083;-62
2022/08/07 05:05:39;;;;;;;;;4.33;3.00;;;;;16.98;49.07;101748.19;5091360;27;45318;-63
2022/08/07 05:08:26;;;;;;;;;4.00;4.00;;;;;16.93;48.84;101755.69;5078933;27;45416;-61
2022/08/07 05:11:03;;;;;;;;;4.67;3.00;;;;;16.98;49.00;101767.00;5096284;27;45537;-64
2022/08/07 05:13:37;;;;;;;;;3.67;3.67;;;;;17.03;48.98;101755.94;5067111;28;45353;-63
2022/08/07 05:16:08;;;;;;;;;3.67;3.67;;;;;17.10;48.84;101762.66;5076242;28;45337;-62
2022/08/07 05:18:47;;;;;;;;;4.33;3.67;;;;;17.18;48.17;101771.06;5059715;28;45341;-63
2022/08/07 05:21:17;;;;;;;;;3.67;3.00;;;;;17.12;48.62;101757.19;5091299;27;46349;-62
2022/08/07 05:23:58;;;;;;;;;4.33;3.00;;;;;17.21;48.71;101772.72;5078768;28;45304;-61
2022/08/07 05:26:27;;;;;;;;;4.33;4.00;;;;;17.23;48.71;101774.34;5077965;28;45257;-62
2022/08/07 05:28:56;;;;;;;;;6.33;5.00;;;;;17.21;49.06;101772.72;5078382;28;45444;-64
2022/08/07 05:31:25;;;;;;;;;4.00;4.00;;;;;17.16;48.97;101774.81;5094724;27;46172;-62
2022/08/07 05:33:52;;;;;;;;;3.00;3.00;;;;;17.13;48.65;101766.97;5079263;27;45445;-62
2022/08/07 05:36:20;;;;;;;;;3.00;3.00;;;;;17.18;48.83;101772.91;5098817;27;45410;-64
2022/08/07 05:38:46;;;;;;;;;4.00;4.00;;;;;17.22;48.90;101779.81;5089141;27;45599;-61
2022/08/07 05:41:12;;;;;;;;;4.33;4.33;;;;;17.19;48.56;101780.88;5088823;27;45608;-63
2022/08/07 05:43:39;;;;;;;;;4.00;2.67;;;;;17.15;48.89;101767.72;5097088;27;45373;-63
2022/08/07 05:46:05;;;;;;;;;3.00;3.00;;;;;17.22;48.93;101779.81;5097077;27;45239;-62
2022/08/07 05:48:31;;;;;;;;;5.00;4.00;;;;;17.22;48.93;101777.13;5078069;27;45472;-61
2022/08/07 05:50:59;;;;;;;;;4.00;4.00;;;;;17.23;48.77;101778.84;5095782;27;45535;-62
2022/08/07 05:53:25;;;;;;;;;5.00;3.33;;;;;17.27;49.07;101780.38;5096437;27;45516;-62
2022/08/07 05:55:53;;;;;;;;;4.67;4.67;;;;;17.24;48.74;101768.00;5078349;27;45338;-64
2022/08/07 05:58:21;;;;;;;;;3.00;3.00;;;;;17.32;48.57;101778.25;5096611;27;45263;-61
2022/08/07 06:00:48;;;;;;;;;3.67;3.67;;;;;17.39;48.59;101782.25;5095418;27;45356;-61
2022/08/07 06:03:17;;;;;;;;;4.00;3.00;;;;;17.37;48.56;101773.44;5096495;27;45493;-62
2022/08/07 06:05:45;;;;;;;;;2.00;2.00;;;;;17.47;48.66;101774.56;5095262;27;45418;-63
2022/08/07 06:08:11;;;;;;;;;4.67;3.00;;;;;17.48;48.32;101775.41;5097257;27;45476;-63
2022/08/07 06:10:37;;;;;;;;;3.00;3.00;;;;;17.46;48.28;101772.84;5077022;27;47764;-62
2022/08/07 06:13:03;;;;;;;;;2.33;2.33;;;;;17.49;48.42;101780.69;5086195;27;45545;-61
2022/08/07 06:15:29;;;;;;;;;4.00;3.00;;;;;17.46;48.61;101772.84;5075980;28;45399;-62
2022/08/07 06:17:55;;;;;;;;;3.00;3.00;;;;;17.53;48.35;101774.13;5076452;28;45893;-63
2022/08/07 06:20:22;;;;;;;;;3.00;3.00;;;;;17.52;47.90;101769.72;5078453;27;46311;-62
2022/08/07 06:22:49;;;;;;;;;4.00;4.00;;;;;17.55;48.18;101776.72;5099602;27;45279;-61
2022/08/07 06:25:14;;;;;;;;;3.67;2.67;;;;;17.54;48.32;101767.78;5100407;27;45226;-63
2022/08/07 06:27:40;;;;;;;;;2.67;2.67;;;;;17.61;48.12;101776.31;5100293;27;45666;-62
2022/08/07 06:30:06;;;;;;;;;4.00;3.00;;;;;17.62;48.46;101784.28;5099447;27;45994;-63
2022/08/07 06:32:32;;;;;;;;;3.00;3.00;;;;;17.64;48.13;101781.50;5098886;27;45428;-63
2022/08/07 06:34:59;;;;;;;;;3.00;3.00;;;;;17.65;47.71;101776.00;5099794;27;45366;-61
2022/08/07 06:37:24;;;;;;;;;3.00;3.00;;;;;17.71;47.95;101784.66;5100077;27;45567;-62
2022/08/07 06:39:52;;;;;;;;;5.67;3.33;;;;;17.75;47.68;101778.13;5099407;27;46527;-61
2022/08/07 06:42:23;;;;;;;;;2.00;2.00;;;;;17.79;48.08;101779.63;5098825;27;45336;-63
2022/08/07 06:44:50;;;;;;;;;3.00;2.33;;;;;17.82;47.81;101774.03;5099919;27;45503;-63
2022/08/07 06:47:16;;;;;;;;;3.67;3.67;;;;;17.88;47.84;101787.09;5099909;27;45440;-62
2022/08/07 06:49:43;;;;;;;;;4.00;3.00;;;;;17.94;47.57;101786.66;5100173;27;46218;-62
2022/08/07 06:52:10;;;;;;;;;3.00;2.00;;;;;17.95;47.59;101774.94;5099249;27;45322;-63
2022/08/07 06:54:38;;;;;;;;;3.00;3.00;;;;;18.07;47.35;101778.63;5099360;27;45386;-63
2022/08/07 06:57:08;;;;;;;;;1.67;1.67;;;;;18.10;47.57;101781.09;5099325;27;45332;-60
2022/08/07 06:59:44;;;;;;;;;2.00;2.00;;;;;18.18;47.35;101782.28;5099117;27;46102;-60
2022/08/07 07:02:18;;;;;;;;;6.00;2.00;;;;;18.25;47.33;101783.59;5097574;27;45525;-62
2022/08/07 07:04:45;;;;;;;;;4.00;2.33;;;;;18.30;46.93;101785.09;5100415;27;45337;-65
2022/08/07 07:07:10;;;;;;;;;2.67;2.67;;;;;18.33;46.44;101783.06;5100147;27;45156;-62
2022/08/07 07:09:37;;;;;;;;;3.33;3.33;;;;;18.35;46.29;101780.25;5099057;27;46787;-62
2022/08/07 07:12:05;;;;;;;;;3.00;3.00;;;;;18.45;46.32;101784.03;5096674;27;45449;-62
2022/08/07 07:14:46;;;;;;;;;4.00;4.00;;;;;18.53;46.27;101792.44;5078522;28;45268;-62
2022/08/07 07:17:23;;;;;;;;;2.00;2.00;;;;;18.53;46.03;101787.94;5078858;28;45456;-63
2022/08/07 07:19:54;;;;;;;;;3.00;3.00;;;;;18.60;46.08;101782.94;5084693;27;46661;-61
2022/08/07 07:22:21;;;;;;;;;1.33;1.33;;;;;18.62;46.18;101781.03;5098718;27;45318;-61
2022/08/07 07:24:48;;;;;;;;;5.67;2.33;;;;;18.76;45.90;101786.34;5099102;27;45447;-61
2022/08/07 07:27:16;;;;;;;;;3.00;3.00;;;;;18.78;45.63;101776.28;5099469;27;45410;-61
2022/08/07 07:29:46;;;;;;;;;2.00;2.00;;;;;18.90;44.69;101774.56;5097599;27;45577;-62
2022/08/07 07:32:13;;;;;;;;;3.33;2.00;;;;;18.95;45.15;101782.31;5080142;27;45351;-63
2022/08/07 07:34:44;;;;;;;;;2.00;2.00;;;;;19.02;44.39;101772.81;5079869;27;45436;-61
2022/08/07 07:37:12;;;;;;;;;4.00;4.00;;;;;19.04;44.58;101773.56;5099028;27;45430;-61
2022/08/07 07:39:39;;;;;;;;;1.00;1.00;;;;;19.00;45.08;101763.94;5097768;27;46176;-62
2022/08/07 07:42:08;;;;;;;;;3.00;3.00;;;;;19.16;44.51;101775.34;5098335;27;45430;-62
2022/08/07 07:44:37;;;;;;;;;3.00;2.00;;;;;19.12;44.20;101752.25;5098245;27;45802;-63
2022/08/07 07:47:04;;;;;;;;;4.00;2.00;;;;;19.25;44.08;101769.25;5080411;27;45383;-62
2022/08/07 07:49:33;;;;;;;;;2.67;2.67;;;;;19.31;44.27;101773.34;5097380;27;46243;-61
2022/08/07 07:52:01;;;;;;;;;3.00;3.00;;;;;19.32;44.08;101767.84;5062294;27;45578;-63
2022/08/07 07:54:28;;;;;;;;;2.67;2.67;;;;;19.31;44.01;101758.03;5080505;27;45406;-62
2022/08/07 07:56:56;;;;;;;;;2.00;2.00;;;;;19.40;43.58;101762.75;5098825;27;45573;-63
2022/08/07 07:59:23;;;;;;;;;1.67;1.00;;;;;19.48;43.45;101769.41;5097589;27;45594;-65
2022/08/07 08:01:50;;;;;;;;;2.00;2.00;;;;;19.55;43.49;101754.53;5098504;27;45159;-62
2022/08/07 08:04:18;;;;;;;;;2.00;2.00;;;;;19.65;43.43;101763.63;5098633;27;45511;-65
2022/08/07 08:06:45;;;;;;;;;1.67;1.67;;;;;19.73;42.67;101761.22;5080073;27;45318;-62
2022/08/07 08:09:13;;;;;;;;;2.00;2.00;;;;;19.77;42.41;101761.81;5098122;27;45422;-64
2022/08/07 08:11:39;;;;;;;;;3.00;3.00;;;;;19.84;42.09;101755.00;5097014;27;45181;-65
2022/08/07 08:14:04;;;;;;;;;2.00;2.00;;;;;19.93;41.56;101752.47;5079502;27;45327;-61
2022/08/07 08:16:38;;;;;;;;;2.00;2.00;;;;;20.00;41.70;101745.59;5098365;27;45610;-62
2022/08/07 08:19:08;;;;;;;;;2.00;2.00;;;;;20.02;41.32;101737.38;5097870;27;46201;-62
2022/08/07 08:27:13;;;;;;;;;2.00;2.00;;;;;20.26;40.80;101748.09;5097962;27;45253;-61
2022/08/07 08:29:48;;;;;;;;;2.00;2.00;;;;;20.35;40.67;101746.53;5096491;27;46214;-61
2022/08/07 08:32:17;;;;;;;;;2.00;2.00;;;;;20.51;40.31;101747.91;5096675;27;45448;-61
2022/08/07 08:34:45;;;;;;;;;1.33;1.33;;;;;20.75;38.75;101734.28;5097736;27;45318;-64
2022/08/07 08:37:12;;;;;;;;;1.00;1.00;;;;;21.08;38.31;101727.94;5098059;27;46054;-64
2022/08/07 08:39:41;;;;;;;;;2.67;2.00;;;;;21.74;38.40;101738.69;5095450;27;46869;-64
2022/08/07 08:42:28;;;;;;;;;1.00;1.00;;;;;22.32;37.05;101726.44;5079455;27;45433;-61
2022/08/07 08:45:04;;;;;;;;;2.00;2.00;;;;;22.87;35.47;101716.13;5078907;27;45426;-63
2022/08/07 08:47:48;;;;;;;;;2.00;2.00;;;;;23.51;34.69;101721.09;5098345;27;45250;-63
2022/08/07 08:50:25;;;;;;;;;1.50;1.50;;;;;23.99;33.64;101719.38;5095800;27;46511;-60
2022/08/07 08:53:02;;;;;;;;;3.75;2.25;;;;;24.47;33.40;101723.84;5098003;27;45459;-62
2022/08/07 08:55:45;;;;;;;;;2.00;2.00;;;;;24.89;32.54;101700.63;5079350;27;45440;-62
2022/08/07 08:58:23;;;;;;;;;3.00;1.50;;;;;25.33;31.62;101708.94;5097253;27;45188;-62
2022/08/07 09:00:53;;;;;;;;;2.50;1.00;;;;;25.69;31.02;101711.69;5096679;27;46640;-62
2022/08/07 09:03:32;;;;;;;;;2.00;2.00;;;;;25.97;29.91;101712.41;5097539;27;45235;-62
2022/08/07 09:06:07;;;;;;;;;1.80;1.80;;;;;26.29;30.85;101714.50;5097435;27;45378;-61
2022/08/07 09:08:35;;;;;;;;;0.75;0.75;;;;;26.41;28.53;101711.38;5097359;27;45328;-61
2022/08/07 09:11:16;;;;;;;;;0.00;0.00;;;;;26.48;27.99;101708.84;5096145;27;45412;-62
2022/08/07 09:14:03;;;;;;;;;1.00;1.00;;;;;26.85;27.78;101708.50;5063220;28;45331;-63
2022/08/07 09:16:41;;;;;;;;;1.00;1.00;;;;;27.26;27.27;101706.78;5076777;28;45392;-61
2022/08/07 09:19:20;;;;;;;;;2.50;2.00;;;;;27.44;27.44;101705.78;5076990;28;45344;-63
2022/08/07 09:22:01;;;;;;;;;1.00;1.00;;;;;27.63;26.33;101709.03;5092778;27;45427;-62
2022/08/07 09:24:47;;;;;;;;;1.00;1.00;;;;;27.81;26.03;101708.88;5096742;27;45274;-64
2022/08/07 09:27:32;;;;;;;;;3.00;3.00;;;;;27.99;25.17;101710.56;5078375;27;45213;-64
2022/08/07 09:30:06;;;;;;;;;1.80;1.40;;;;;28.14;25.18;101703.41;5094585;27;45643;-63
2022/08/07 09:32:44;;;;;;;;;1.00;1.00;;;;;28.57;25.88;101709.47;5076074;28;46131;-63
2022/08/07 09:35:31;;;;;;;;;2.00;2.00;;;;;28.72;23.70;101707.69;5076406;28;45357;-63
2022/08/07 09:38:35;;;;;;;;;1.00;1.00;;;;;28.96;25.31;101709.50;5076163;28;45375;-62
2022/08/07 09:41:22;;;;;;;;;1.80;1.40;;;;;29.38;24.87;101706.31;5084436;27;45384;-62
2022/08/07 09:44:25;;;;;;;;;2.00;2.00;;;;;29.75;24.41;101705.53;5096772;27;45972;-63
2022/08/07 09:47:06;;;;;;;;;2.00;2.00;;;;;29.87;22.48;101708.69;5097313;27;45233;-66
2022/08/07 09:50:05;;;;;;;;;0.80;0.80;;;;;29.86;23.05;101707.84;5096539;27;45277;-63
2022/08/07 09:52:33;;;;;;;;;3.00;1.40;;;;;30.14;23.93;101699.03;5096071;27;45346;-62
2022/08/07 09:55:23;;;;;;;;;1.00;1.00;;;;;30.36;22.74;101695.34;5096458;27;45456;-62
2022/08/07 09:58:19;;;;;;;;;2.00;2.00;;;;;30.48;22.08;101707.56;5100329;27;45350;-62
2022/08/07 10:01:03;;;;;;;;;2.00;2.00;;;;;30.53;22.71;101696.00;5099999;27;45315;-62
2022/08/07 10:03:57;;;;;;;;;2.00;2.00;;;;;30.66;23.21;101693.47;5100126;27;45282;-62
2022/08/07 10:06:43;;;;;;;;;1.40;1.40;;;;;30.79;22.43;101693.66;5070760;27;46263;-63
2022/08/07 10:09:29;;;;;;;;;1.60;1.60;;;;;30.83;23.41;101694.09;5100008;27;45263;-61
2022/08/07 10:12:16;;;;;;;;;2.00;2.00;;;;;30.85;23.15;101685.66;5082759;27;45268;-62
2022/08/07 10:15:17;;;;;;;;;2.40;2.40;;;;;30.59;22.08;101687.00;5079736;28;45535;-61
2022/08/07 10:18:19;;;;;;;;;1.60;1.60;;;;;30.38;22.42;101670.47;5017147;28;46110;-63
2022/08/07 10:21:17;;;;;;;;;2.00;2.00;;;;;30.05;22.50;101673.56;5079275;28;45425;-61
2022/08/07 10:24:17;;;;;;;;;3.00;3.00;;;;;29.74;23.74;101668.19;5091465;27;45741;-65
2022/08/07 10:27:23;;;;;;;;;2.20;2.20;;;;;29.49;23.98;101674.91;5081800;27;45345;-65
2022/08/07 10:30:12;;;;;;;;;1.80;1.80;;;;;29.06;24.08;101660.81;5064612;27;45603;-62
2022/08/07 10:32:55;;;;;;;;;2.00;2.00;;;;;28.63;24.94;101665.78;5099342;27;45219;-62
2022/08/07 10:35:27;;;;;;;;;3.00;3.00;;;;;28.21;25.35;101656.00;5100350;27;45440;-62
2022/08/07 10:38:00;;;;;;;;;2.40;2.40;;;;;27.70;25.26;101661.91;5100996;27;45340;-62
2022/08/07 10:40:37;;;;;;;;;2.00;2.00;;;;;27.23;26.10;101662.56;5099694;27;46405;-62
2022/08/07 10:43:14;;;;;;;;;1.00;1.00;;;;;26.94;26.57;101655.63;5080282;27;45422;-63
2022/08/07 10:45:48;;;;;;;;;2.40;2.40;;;;;26.65;26.39;101660.66;5099710;27;45373;-63
2022/08/07 10:48:13;;;;;;;;;4.25;3.00;;;;;26.44;26.94;101667.41;5064346;27;45407;-62
2022/08/07 10:50:46;;;;;;;;;3.00;3.00;;;;;26.17;27.37;101659.38;5098170;27;46248;-62
2022/08/07 10:53:40;;;;;;;;;2.60;2.60;;;;;25.90;27.87;101654.09;5091278;27;45492;-62
2022/08/07 10:56:42;;;;;;;;;2.80;2.80;;;;;25.77;28.11;101651.78;5090491;27;45341;-66
2022/08/07 10:59:33;;;;;;;;;2.00;2.00;;;;;25.64;28.19;101656.78;5045685;27;45284;-63
2022/08/07 11:02:10;;;;;;;;;2.00;2.00;;;;;25.58;28.13;101645.50;5098110;27;46230;-61
2022/08/07 11:04:58;;;;;;;;;4.25;3.50;;;;;25.63;28.40;101646.88;5097155;27;45308;-63
2022/08/07 11:07:49;;;;;;;;;3.00;3.00;;;;;25.72;28.67;101644.09;5097490;27;45369;-60
2022/08/07 11:10:33;;;;;;;;;2.00;2.00;;;;;25.73;28.51;101647.69;5098090;27;45236;-61
2022/08/07 11:13:23;;;;;;;;;3.75;2.50;;;;;25.52;28.38;101632.53;5089199;27;47868;-63
2022/08/07 11:15:54;;;;;;;;;2.80;2.80;;;;;25.62;28.79;101623.38;5098059;27;45227;-62
2022/08/07 11:18:45;;;;;;;;;3.00;3.00;;;;;25.66;27.98;101628.38;5097920;27;45426;-62
2022/08/07 11:21:33;;;;;;;;;2.00;2.00;;;;;25.69;27.85;101624.50;5098175;27;45542;-61
2022/08/07 11:24:09;;;;;;;;;2.75;2.75;;;;;25.80;28.14;101616.94;5097181;27;45376;-61
2022/08/07 11:26:50;;;;;;;;;5.00;3.50;;;;;25.80;28.40;101610.63;5097603;27;45401;-62
2022/08/07 11:29:25;;;;;;;;;4.00;3.00;;;;;25.89;27.63;101620.53;5097883;27;45166;-62
2022/08/07 11:32:07;;;;;;;;;5.25;5.25;;;;;25.91;27.73;101617.66;5079580;27;45482;-63
2022/08/07 11:34:56;;;;;;;;;4.00;4.00;;;;;25.80;28.14;101597.84;5096685;27;45452;-61
2022/08/07 11:37:33;;;;;;;;;2.25;2.25;;;;;25.96;27.35;101604.41;5097478;27;45449;-65
2022/08/07 11:40:27;;;;;;;;;4.00;4.00;;;;;26.02;28.51;101609.19;5098025;27;45429;-62
2022/08/07 11:43:05;;;;;;;;;3.00;3.00;;;;;26.03;27.22;101609.03;5055991;27;45394;-62
2022/08/07 11:45:49;;;;;;;;;2.25;2.25;;;;;25.92;28.34;101597.59;5097083;27;45452;-67
2022/08/07 11:48:23;;;;;;;;;3.00;3.00;;;;;26.03;27.46;101594.56;5057102;27;1137694;-61
2022/08/07 11:51:07;;;;;;;;;5.00;4.00;;;;;26.23;27.46;101592.44;5098681;27;45384;-63
2022/08/07 11:53:43;;;;;;;;;2.25;2.25;;;;;26.11;27.01;101584.56;5098334;27;45479;-63